createdAt,value
2017-01-22T00:00:03.711Z,-3.67
2017-01-22T00:00:44.282Z,-3.74
2017-01-22T00:01:24.935Z,-3.74
2017-01-22T00:02:05.580Z,-3.85
2017-01-22T00:02:46.242Z,-3.82
2017-01-22T00:03:26.886Z,-3.78
2017-01-22T00:04:07.626Z,-3.77
2017-01-22T00:04:48.206Z,-3.8
2017-01-22T00:05:28.844Z,-3.74
2017-01-22T00:06:09.508Z,-3.83
2017-01-22T00:06:51.125Z,-3.82
2017-01-22T00:07:31.789Z,-3.75
2017-01-22T00:08:12.386Z,-3.74
2017-01-22T00:08:53.032Z,-3.82
2017-01-22T00:09:33.694Z,-3.82
2017-01-22T00:10:15.328Z,-3.8
2017-01-22T00:10:55.910Z,-3.8
2017-01-22T00:11:36.625Z,-3.77
2017-01-22T00:12:17.311Z,-3.8
2017-01-22T00:12:57.913Z,-3.82
2017-01-22T00:13:38.567Z,-3.77
2017-01-22T00:14:19.250Z,-3.83
2017-01-22T00:14:59.925Z,-3.91
2017-01-22T00:15:40.466Z,-3.86
2017-01-22T00:16:22.061Z,-3.88
2017-01-22T00:17:02.650Z,-3.88
2017-01-22T00:17:43.256Z,-3.88
2017-01-22T00:18:23.851Z,-3.86
2017-01-22T00:19:04.486Z,-3.86
2017-01-22T00:19:45.218Z,-3.88
2017-01-22T00:20:25.869Z,-3.92
2017-01-22T00:21:06.509Z,-3.86
2017-01-22T00:21:47.162Z,-3.98
2017-01-22T00:22:27.823Z,-3.91
2017-01-22T00:23:08.411Z,-3.93
2017-01-22T00:23:49.033Z,-3.98
2017-01-22T00:24:29.696Z,-4.02
2017-01-22T00:25:10.340Z,-4.02
2017-01-22T00:25:50.997Z,-4.03
2017-01-22T00:26:31.641Z,-3.99
2017-01-22T00:27:12.318Z,-4.03
2017-01-22T00:27:52.964Z,-4.02
2017-01-22T00:28:33.634Z,-4.02
2017-01-22T00:29:14.260Z,-3.96
2017-01-22T00:29:54.915Z,-3.99
2017-01-22T00:30:35.601Z,-4.02
2017-01-22T00:31:16.259Z,-4.02
2017-01-22T00:31:56.874Z,-4.02
2017-01-22T00:32:37.532Z,-4.02
2017-01-22T00:33:18.220Z,-3.99
2017-01-22T00:33:58.847Z,-4.06
2017-01-22T00:34:39.481Z,-4.06
2017-01-22T00:35:20.159Z,-3.96
2017-01-22T00:36:01.818Z,-4.06
2017-01-22T00:36:42.452Z,-4.03
2017-01-22T00:37:24.128Z,-4.1
2017-01-22T00:38:04.783Z,-4.06
2017-01-22T00:38:45.430Z,-4.1
2017-01-22T00:39:26.089Z,-4.13
2017-01-22T00:40:06.747Z,-4.07
2017-01-22T00:40:47.396Z,-4.09
2017-01-22T00:41:28.047Z,-4.07
2017-01-22T00:42:08.697Z,-4.14
2017-01-22T00:42:49.352Z,-4.13
2017-01-22T00:43:30.007Z,-4.12
2017-01-22T00:44:10.651Z,-4.14
2017-01-22T00:44:51.242Z,-4.17
2017-01-22T00:45:31.915Z,-4.21
2017-01-22T00:46:12.522Z,-4.2
2017-01-22T00:46:53.200Z,-4.16
2017-01-22T00:47:33.859Z,-4.14
2017-01-22T00:48:14.498Z,-4.17
2017-01-22T00:48:56.166Z,-4.16
2017-01-22T00:49:36.837Z,-4.14
2017-01-22T00:50:17.472Z,-4.14
2017-01-22T00:50:58.138Z,-4.13
2017-01-22T00:51:38.783Z,-4.2
2017-01-22T00:52:19.423Z,-4.1
2017-01-22T00:53:00.794Z,-4.09
2017-01-22T00:53:42.479Z,-4.1
2017-01-22T00:54:23.137Z,-4.16
2017-01-22T00:55:03.793Z,-4.21
2017-01-22T00:55:44.420Z,-4.13
2017-01-22T00:56:24.982Z,-4.16
2017-01-22T00:57:05.659Z,-4.21
2017-01-22T00:57:46.276Z,-4.13
2017-01-22T00:58:26.856Z,-4.17
2017-01-22T00:59:07.510Z,-4.21
2017-01-22T00:59:48.138Z,-4.2
2017-01-22T01:00:28.709Z,-4.17
2017-01-22T01:01:09.346Z,-4.22
2017-01-22T01:01:49.954Z,-4.2
2017-01-22T01:02:30.547Z,-4.17
2017-01-22T01:03:11.119Z,-4.21
2017-01-22T01:03:52.791Z,-4.28
2017-01-22T01:04:33.500Z,-4.25
2017-01-22T01:05:14.082Z,-4.3
2017-01-22T01:05:54.651Z,-4.24
2017-01-22T01:06:36.322Z,-4.25
2017-01-22T01:07:16.893Z,-4.27
2017-01-22T01:07:57.589Z,-4.32
2017-01-22T01:08:38.070Z,-4.3
2017-01-22T01:09:18.714Z,-4.31
2017-01-22T01:09:59.313Z,-4.34
2017-01-22T01:10:39.885Z,-4.34
2017-01-22T01:11:20.501Z,-4.3
2017-01-22T01:12:01.119Z,-4.34
2017-01-22T01:12:41.691Z,-4.45
2017-01-22T01:13:22.333Z,-4.35
2017-01-22T01:14:02.971Z,-4.48
2017-01-22T01:14:43.529Z,-4.48
2017-01-22T01:15:24.203Z,-4.43
2017-01-22T01:16:04.781Z,-4.38
2017-01-22T01:16:45.385Z,-4.39
2017-01-22T01:17:25.964Z,-4.42
2017-01-22T01:18:07.697Z,-4.43
2017-01-22T01:18:48.217Z,-4.41
2017-01-22T01:19:28.810Z,-4.38
2017-01-22T01:20:09.382Z,-4.41
2017-01-22T01:20:50.036Z,-4.38
2017-01-22T01:21:30.716Z,-4.41
2017-01-22T01:22:11.340Z,-4.45
2017-01-22T01:22:51.993Z,-4.45
2017-01-22T01:23:32.642Z,-4.49
2017-01-22T01:24:13.365Z,-4.49
2017-01-22T01:24:53.945Z,-4.46
2017-01-22T01:25:35.610Z,-4.49
2017-01-22T01:26:16.286Z,-4.48
2017-01-22T01:26:57.964Z,-4.48
2017-01-22T01:27:38.627Z,-4.45
2017-01-22T01:28:19.265Z,-4.49
2017-01-22T01:28:59.913Z,-4.5
2017-01-22T01:29:40.575Z,-4.61
2017-01-22T01:30:21.225Z,-4.57
2017-01-22T01:31:01.867Z,-4.55
2017-01-22T01:31:42.525Z,-4.55
2017-01-22T01:32:23.254Z,-4.55
2017-01-22T01:33:03.831Z,-4.52
2017-01-22T01:33:44.491Z,-4.55
2017-01-22T01:34:25.137Z,-4.46
2017-01-22T01:35:05.795Z,-4.55
2017-01-22T01:35:46.443Z,-4.57
2017-01-22T01:36:27.101Z,-4.55
2017-01-22T01:37:07.747Z,-4.59
2017-01-22T01:37:48.415Z,-4.57
2017-01-22T01:38:29.054Z,-4.5
2017-01-22T01:39:09.709Z,-4.49
2017-01-22T01:39:50.360Z,-4.63
2017-01-22T01:40:31.018Z,-4.53
2017-01-22T01:41:11.668Z,-4.64
2017-01-22T01:41:52.324Z,-4.59
2017-01-22T01:42:33.996Z,-4.61
2017-01-22T01:43:14.656Z,-4.59
2017-01-22T01:43:55.291Z,-4.59
2017-01-22T01:44:35.964Z,-4.63
2017-01-22T01:45:16.626Z,-4.66
2017-01-22T01:45:57.254Z,-4.59
2017-01-22T01:46:37.918Z,-4.63
2017-01-22T01:47:18.586Z,-4.61
2017-01-22T01:47:59.219Z,-4.7
2017-01-22T01:48:39.872Z,-4.71
2017-01-22T01:49:20.531Z,-4.66
2017-01-22T01:50:01.179Z,-4.63
2017-01-22T01:50:41.830Z,-4.67
2017-01-22T01:51:22.519Z,-4.64
2017-01-22T01:52:03.121Z,-4.75
2017-01-22T01:52:43.687Z,-4.63
2017-01-22T01:53:24.341Z,-4.63
2017-01-22T01:54:04.994Z,-4.7
2017-01-22T01:54:45.652Z,-4.7
2017-01-22T01:55:26.300Z,-4.69
2017-01-22T01:56:06.957Z,-4.67
2017-01-22T01:56:47.609Z,-4.61
2017-01-22T01:57:28.264Z,-4.64
2017-01-22T01:58:08.911Z,-4.66
2017-01-22T01:58:49.570Z,-4.66
2017-01-22T01:59:30.221Z,-4.63
2017-01-22T02:00:10.873Z,-4.7
2017-01-22T02:00:51.529Z,-4.69
2017-01-22T02:01:32.126Z,-4.77
2017-01-22T02:02:12.731Z,-4.77
2017-01-22T02:02:53.302Z,-4.75
2017-01-22T02:03:33.937Z,-4.78
2017-01-22T02:04:14.581Z,-4.75
2017-01-22T02:04:55.233Z,-4.81
2017-01-22T02:05:36.925Z,-4.81
2017-01-22T02:06:17.505Z,-4.71
2017-01-22T02:06:58.102Z,-4.81
2017-01-22T02:07:38.675Z,-4.75
2017-01-22T02:08:19.327Z,-4.67
2017-01-22T02:08:59.911Z,-4.71
2017-01-22T02:09:40.507Z,-4.7
2017-01-22T02:10:21.079Z,-4.75
2017-01-22T02:11:01.731Z,-4.75
2017-01-22T02:11:42.318Z,-4.77
2017-01-22T02:12:22.912Z,-4.71
2017-01-22T02:13:03.464Z,-4.81
2017-01-22T02:13:44.061Z,-4.75
2017-01-22T02:14:24.728Z,-4.79
2017-01-22T02:15:05.313Z,-4.71
2017-01-22T02:15:45.892Z,-4.77
2017-01-22T02:16:26.545Z,-4.78
2017-01-22T02:17:07.186Z,-4.77
2017-01-22T02:17:47.869Z,-4.77
2017-01-22T02:18:28.504Z,-4.89
2017-01-22T02:19:10.175Z,-4.81
2017-01-22T02:19:50.852Z,-4.88
2017-01-22T02:20:31.484Z,-4.77
2017-01-22T02:21:12.074Z,-4.95
2017-01-22T02:21:52.670Z,-4.79
2017-01-22T02:22:33.236Z,-4.91
2017-01-22T02:23:13.889Z,-4.88
2017-01-22T02:23:54.481Z,-4.81
2017-01-22T02:24:35.039Z,-4.87
2017-01-22T02:25:15.690Z,-4.89
2017-01-22T02:25:56.273Z,-4.79
2017-01-22T02:26:36.844Z,-4.89
2017-01-22T02:27:17.532Z,-4.89
2017-01-22T02:27:58.164Z,-4.81
2017-01-22T02:28:38.806Z,-4.79
2017-01-22T02:29:19.449Z,-4.81
2017-01-22T02:30:00.120Z,-4.87
2017-01-22T02:30:40.695Z,-4.85
2017-01-22T02:31:21.298Z,-4.84
2017-01-22T02:32:01.857Z,-4.91
2017-01-22T02:32:42.539Z,-4.85
2017-01-22T02:33:23.109Z,-4.87
2017-01-22T02:34:03.706Z,-4.88
2017-01-22T02:34:44.289Z,-4.95
2017-01-22T02:35:24.934Z,-4.96
2017-01-22T02:36:05.562Z,-4.85
2017-01-22T02:36:46.150Z,-4.92
2017-01-22T02:37:26.776Z,-4.92
2017-01-22T02:38:07.366Z,-5.03
2017-01-22T02:38:47.970Z,-4.96
2017-01-22T02:39:28.540Z,-4.99
2017-01-22T02:40:09.188Z,-4.99
2017-01-22T02:40:49.776Z,-5
2017-01-22T02:41:30.374Z,-4.99
2017-01-22T02:42:10.934Z,-4.99
2017-01-22T02:42:51.594Z,-5
2017-01-22T02:43:32.190Z,-5.03
2017-01-22T02:44:12.787Z,-5.05
2017-01-22T02:44:53.348Z,-5.05
2017-01-22T02:45:34.007Z,-4.96
2017-01-22T02:46:14.678Z,-5.08
2017-01-22T02:46:55.387Z,-5.08
2017-01-22T02:47:35.949Z,-5.05
2017-01-22T02:48:16.618Z,-5.08
2017-01-22T02:48:57.326Z,-5.05
2017-01-22T02:49:37.903Z,-5.1
2017-01-22T02:50:18.577Z,-5.05
2017-01-22T02:50:59.225Z,-5.05
2017-01-22T02:51:39.877Z,-5.06
2017-01-22T02:52:20.535Z,-5.1
2017-01-22T02:53:01.201Z,-4.99
2017-01-22T02:53:41.831Z,-5.05
2017-01-22T02:54:22.495Z,-5.06
2017-01-22T02:55:03.058Z,-5.09
2017-01-22T02:55:43.714Z,-5.14
2017-01-22T02:56:24.332Z,-5.18
2017-01-22T02:57:04.995Z,-5.17
2017-01-22T02:57:45.655Z,-5.09
2017-01-22T02:58:26.321Z,-5.18
2017-01-22T02:59:06.948Z,-5.08
2017-01-22T02:59:47.597Z,-5.21
2017-01-22T03:00:28.170Z,-5.09
2017-01-22T03:01:08.812Z,-5.1
2017-01-22T03:01:49.404Z,-5.1
2017-01-22T03:02:30.114Z,-5.14
2017-01-22T03:03:10.701Z,-5.1
2017-01-22T03:03:51.327Z,-5.19
2017-01-22T03:04:31.915Z,-5.17
2017-01-22T03:05:12.519Z,-5.25
2017-01-22T03:05:53.101Z,-5.19
2017-01-22T03:06:33.712Z,-5.18
2017-01-22T03:07:14.411Z,-5.22
2017-01-22T03:07:55.043Z,-5.14
2017-01-22T03:08:35.609Z,-5.25
2017-01-22T03:09:16.244Z,-5.28
2017-01-22T03:09:56.916Z,-5.22
2017-01-22T03:10:37.554Z,-5.17
2017-01-22T03:11:18.254Z,-5.13
2017-01-22T03:11:58.846Z,-5.24
2017-01-22T03:12:39.386Z,-5.27
2017-01-22T03:13:21.000Z,-5.18
2017-01-22T03:14:02.615Z,-5.24
2017-01-22T03:14:43.305Z,-5.25
2017-01-22T03:15:23.904Z,-5.21
2017-01-22T03:16:04.535Z,-5.25
2017-01-22T03:16:45.185Z,-5.25
2017-01-22T03:17:25.839Z,-5.21
2017-01-22T03:18:06.489Z,-5.29
2017-01-22T03:18:47.146Z,-5.24
2017-01-22T03:19:27.822Z,-5.24
2017-01-22T03:20:08.494Z,-5.22
2017-01-22T03:20:49.173Z,-5.28
2017-01-22T03:21:29.747Z,-5.25
2017-01-22T03:22:10.410Z,-5.28
2017-01-22T03:22:51.086Z,-5.24
2017-01-22T03:23:31.787Z,-5.29
2017-01-22T03:24:12.455Z,-5.35
2017-01-22T03:24:53.020Z,-5.22
2017-01-22T03:25:33.701Z,-5.31
2017-01-22T03:26:14.298Z,-5.28
2017-01-22T03:26:54.876Z,-5.29
2017-01-22T03:27:35.528Z,-5.36
2017-01-22T03:28:17.123Z,-5.35
2017-01-22T03:28:57.829Z,-5.28
2017-01-22T03:29:39.270Z,-5.35
2017-01-22T03:30:19.861Z,-5.38
2017-01-22T03:31:00.430Z,-5.36
2017-01-22T03:31:41.107Z,-5.28
2017-01-22T03:32:21.700Z,-5.38
2017-01-22T03:33:02.268Z,-5.38
2017-01-22T03:33:42.918Z,-5.38
2017-01-22T03:34:23.514Z,-5.33
2017-01-22T03:35:04.108Z,-5.29
2017-01-22T03:35:44.662Z,-5.29
2017-01-22T03:36:25.340Z,-5.35
2017-01-22T03:37:05.985Z,-5.24
2017-01-22T03:37:46.648Z,-5.35
2017-01-22T03:38:27.292Z,-5.28
2017-01-22T03:39:07.957Z,-5.29
2017-01-22T03:39:48.592Z,-5.25
2017-01-22T03:40:29.263Z,-5.31
2017-01-22T03:41:09.921Z,-5.25
2017-01-22T03:41:50.570Z,-5.25
2017-01-22T03:42:31.222Z,-5.29
2017-01-22T03:43:11.872Z,-5.25
2017-01-22T03:43:52.516Z,-5.33
2017-01-22T03:44:33.154Z,-5.28
2017-01-22T03:45:13.821Z,-5.25
2017-01-22T03:45:54.476Z,-5.28
2017-01-22T03:46:36.161Z,-5.24
2017-01-22T03:47:16.815Z,-5.28
2017-01-22T03:47:57.484Z,-5.25
2017-01-22T03:48:38.110Z,-5.33
2017-01-22T03:49:18.767Z,-5.28
2017-01-22T03:49:59.431Z,-5.27
2017-01-22T03:50:40.061Z,-5.28
2017-01-22T03:51:20.731Z,-5.28
2017-01-22T03:52:02.402Z,-5.28
2017-01-22T03:52:43.040Z,-5.25
2017-01-22T03:53:23.645Z,-5.28
2017-01-22T03:54:04.301Z,-5.29
2017-01-22T03:54:44.958Z,-5.29
2017-01-22T03:55:25.609Z,-5.28
2017-01-22T03:56:06.196Z,-5.22
2017-01-22T03:56:46.767Z,-5.38
2017-01-22T03:57:27.417Z,-5.28
2017-01-22T03:58:08.009Z,-5.38
2017-01-22T03:58:48.707Z,-5.38
2017-01-22T03:59:29.310Z,-5.38
2017-01-22T04:00:10.005Z,-5.33
2017-01-22T04:00:50.622Z,-5.39
2017-01-22T04:01:31.239Z,-5.4
2017-01-22T04:02:11.924Z,-5.29
2017-01-22T04:02:52.565Z,-5.36
2017-01-22T04:03:33.288Z,-5.39
2017-01-22T04:04:13.879Z,-5.36
2017-01-22T04:04:54.529Z,-5.38
2017-01-22T04:05:35.167Z,-5.39
2017-01-22T04:06:15.831Z,-5.33
2017-01-22T04:06:57.328Z,-5.47
2017-01-22T04:07:38.063Z,-5.36
2017-01-22T04:08:18.689Z,-5.46
2017-01-22T04:08:59.329Z,-5.49
2017-01-22T04:09:39.976Z,-5.54
2017-01-22T04:10:20.617Z,-5.49
2017-01-22T04:11:01.286Z,-5.46
2017-01-22T04:11:41.961Z,-5.49
2017-01-22T04:12:22.532Z,-5.51
2017-01-22T04:13:03.129Z,-5.54
2017-01-22T04:13:43.705Z,-5.45
2017-01-22T04:14:24.381Z,-5.47
2017-01-22T04:15:05.040Z,-5.57
2017-01-22T04:15:45.742Z,-5.53
2017-01-22T04:16:26.400Z,-5.46
2017-01-22T04:17:07.055Z,-5.54
2017-01-22T04:17:47.723Z,-5.57
2017-01-22T04:18:28.363Z,-5.51
2017-01-22T04:19:09.015Z,-5.46
2017-01-22T04:19:50.587Z,-5.56
2017-01-22T04:20:32.271Z,-5.57
2017-01-22T04:21:12.916Z,-5.56
2017-01-22T04:21:53.564Z,-5.58
2017-01-22T04:22:34.225Z,-5.57
2017-01-22T04:23:14.875Z,-5.6
2017-01-22T04:23:55.534Z,-5.58
2017-01-22T04:24:36.181Z,-5.58
2017-01-22T04:25:16.935Z,-5.58
2017-01-22T04:25:57.597Z,-5.6
2017-01-22T04:26:38.164Z,-5.61
2017-01-22T04:27:18.890Z,-5.63
2017-01-22T04:28:00.400Z,-5.6
2017-01-22T04:28:41.087Z,-5.61
2017-01-22T04:29:21.692Z,-5.74
2017-01-22T04:30:03.366Z,-5.63
2017-01-22T04:30:44.032Z,-5.6
2017-01-22T04:31:24.680Z,-5.68
2017-01-22T04:32:06.353Z,-5.64
2017-01-22T04:32:47.055Z,-5.63
2017-01-22T04:33:27.685Z,-5.63
2017-01-22T04:34:08.297Z,-5.64
2017-01-22T04:34:49.986Z,-5.75
2017-01-22T04:35:30.657Z,-5.67
2017-01-22T04:36:11.334Z,-5.57
2017-01-22T04:36:52.958Z,-5.67
2017-01-22T04:37:33.499Z,-5.72
2017-01-22T04:38:14.173Z,-5.71
2017-01-22T04:38:54.765Z,-5.61
2017-01-22T04:39:35.354Z,-5.72
2017-01-22T04:40:15.929Z,-5.76
2017-01-22T04:40:56.573Z,-5.71
2017-01-22T04:41:37.176Z,-5.71
2017-01-22T04:42:18.120Z,-5.61
2017-01-22T04:42:58.680Z,-5.72
2017-01-22T04:43:39.296Z,-5.66
2017-01-22T04:44:19.875Z,-5.71
2017-01-22T04:45:00.479Z,-5.75
2017-01-22T04:45:41.050Z,-5.66
2017-01-22T04:46:21.695Z,-5.75
2017-01-22T04:47:03.364Z,-5.68
2017-01-22T04:47:45.035Z,-5.66
2017-01-22T04:48:25.685Z,-5.76
2017-01-22T04:49:06.338Z,-5.72
2017-01-22T04:49:46.994Z,-5.74
2017-01-22T04:50:27.647Z,-5.76
2017-01-22T04:51:08.221Z,-5.75
2017-01-22T04:51:48.873Z,-5.71
2017-01-22T04:52:29.462Z,-5.68
2017-01-22T04:53:10.051Z,-5.78
2017-01-22T04:53:50.608Z,-5.71
2017-01-22T04:54:31.281Z,-5.78
2017-01-22T04:55:11.873Z,-5.68
2017-01-22T04:55:52.458Z,-5.81
2017-01-22T04:56:33.030Z,-5.78
2017-01-22T04:57:13.684Z,-5.63
2017-01-22T04:57:55.298Z,-5.68
2017-01-22T04:58:35.859Z,-5.76
2017-01-22T04:59:16.450Z,-5.71
2017-01-22T04:59:57.040Z,-5.76
2017-01-22T05:00:37.644Z,-5.79
2017-01-22T05:01:18.214Z,-5.76
2017-01-22T05:01:58.870Z,-5.76
2017-01-22T05:02:39.515Z,-5.76
2017-01-22T05:03:21.191Z,-5.79
2017-01-22T05:04:01.832Z,-5.78
2017-01-22T05:04:42.495Z,-5.81
2017-01-22T05:05:23.159Z,-5.79
2017-01-22T05:06:03.812Z,-5.79
2017-01-22T05:06:44.449Z,-5.81
2017-01-22T05:07:25.102Z,-5.82
2017-01-22T05:08:05.768Z,-5.86
2017-01-22T05:08:46.404Z,-5.86
2017-01-22T05:09:27.075Z,-5.9
2017-01-22T05:10:08.752Z,-5.9
2017-01-22T05:10:50.432Z,-5.9
2017-01-22T05:11:31.027Z,-5.85
2017-01-22T05:12:11.712Z,-5.84
2017-01-22T05:12:52.279Z,-5.86
2017-01-22T05:13:32.939Z,-5.92
2017-01-22T05:14:13.523Z,-5.79
2017-01-22T05:14:54.123Z,-5.84
2017-01-22T05:15:34.679Z,-5.89
2017-01-22T05:16:16.366Z,-5.92
2017-01-22T05:16:57.011Z,-5.93
2017-01-22T05:17:37.673Z,-5.86
2017-01-22T05:18:18.326Z,-5.86
2017-01-22T05:18:58.996Z,-5.96
2017-01-22T05:19:39.619Z,-5.96
2017-01-22T05:20:20.260Z,-5.96
2017-01-22T05:21:00.842Z,-5.96
2017-01-22T05:21:41.488Z,-6
2017-01-22T05:22:22.063Z,-5.96
2017-01-22T05:23:02.666Z,-6.11
2017-01-22T05:23:43.251Z,-6.08
2017-01-22T05:24:23.883Z,-6.03
2017-01-22T05:25:04.478Z,-6.02
2017-01-22T05:25:45.079Z,-6.02
2017-01-22T05:26:25.666Z,-5.99
2017-01-22T05:27:06.300Z,-6
2017-01-22T05:27:46.963Z,-5.99
2017-01-22T05:28:27.616Z,-6
2017-01-22T05:29:08.266Z,-6.03
2017-01-22T05:29:48.915Z,-6.08
2017-01-22T05:30:29.560Z,-6.05
2017-01-22T05:31:10.144Z,-5.99
2017-01-22T05:31:50.707Z,-6.03
2017-01-22T05:32:31.320Z,-6
2017-01-22T05:33:12.922Z,-6
2017-01-22T05:33:53.601Z,-5.99
2017-01-22T05:34:34.103Z,-6
2017-01-22T05:35:14.758Z,-6
2017-01-22T05:35:55.444Z,-6.03
2017-01-22T05:36:36.095Z,-6.03
2017-01-22T05:37:16.737Z,-6.03
2017-01-22T05:37:57.389Z,-6.08
2017-01-22T05:38:38.043Z,-6.11
2017-01-22T05:39:18.698Z,-6.08
2017-01-22T05:39:59.359Z,-6.1
2017-01-22T05:40:40.009Z,-6.08
2017-01-22T05:41:20.579Z,-6.08
2017-01-22T05:42:02.191Z,-6.07
2017-01-22T05:42:42.853Z,-6.1
2017-01-22T05:43:23.522Z,-6.08
2017-01-22T05:44:04.153Z,-6.03
2017-01-22T05:44:44.808Z,-5.99
2017-01-22T05:45:25.473Z,-6.08
2017-01-22T05:46:06.105Z,-6.08
2017-01-22T05:46:46.710Z,-6.07
2017-01-22T05:47:27.302Z,-6.1
2017-01-22T05:48:07.876Z,-6
2017-01-22T05:48:48.526Z,-6.15
2017-01-22T05:49:29.104Z,-6.07
2017-01-22T05:50:09.706Z,-6.17
2017-01-22T05:50:50.282Z,-6.08
2017-01-22T05:51:30.935Z,-6.07
2017-01-22T05:52:11.589Z,-6.13
2017-01-22T05:52:52.219Z,-6.15
2017-01-22T05:53:32.891Z,-6.1
2017-01-22T05:54:13.546Z,-6.11
2017-01-22T05:54:54.200Z,-6.15
2017-01-22T05:55:34.842Z,-6.13
2017-01-22T05:56:15.506Z,-6.13
2017-01-22T05:56:56.084Z,-6.15
2017-01-22T05:57:36.786Z,-6.11
2017-01-22T05:58:17.362Z,-6.15
2017-01-22T05:58:58.007Z,-6.1
2017-01-22T05:59:38.592Z,-6.14
2017-01-22T06:00:19.199Z,-6.14
2017-01-22T06:00:59.761Z,-6.21
2017-01-22T06:01:40.432Z,-6.15
2017-01-22T06:02:21.116Z,-6.21
2017-01-22T06:03:01.813Z,-6.24
2017-01-22T06:03:42.362Z,-6.26
2017-01-22T06:04:23.956Z,-6.23
2017-01-22T06:05:04.530Z,-6.23
2017-01-22T06:05:45.165Z,-6.26
2017-01-22T06:06:25.737Z,-6.17
2017-01-22T06:07:07.365Z,-6.29
2017-01-22T06:07:47.937Z,-6.31
2017-01-22T06:08:28.595Z,-6.32
2017-01-22T06:09:09.286Z,-6.29
2017-01-22T06:09:49.873Z,-6.32
2017-01-22T06:10:30.443Z,-6.34
2017-01-22T06:11:11.100Z,-6.34
2017-01-22T06:11:51.797Z,-6.31
2017-01-22T06:12:32.384Z,-6.35
2017-01-22T06:13:12.978Z,-6.34
2017-01-22T06:13:53.544Z,-6.34
2017-01-22T06:14:34.197Z,-6.36
2017-01-22T06:15:14.792Z,-6.31
2017-01-22T06:15:55.384Z,-6.34
2017-01-22T06:16:35.997Z,-6.35
2017-01-22T06:17:16.648Z,-6.32
2017-01-22T06:17:57.320Z,-6.36
2017-01-22T06:18:37.970Z,-6.36
2017-01-22T06:19:18.614Z,-6.32
2017-01-22T06:19:59.294Z,-6.39
2017-01-22T06:20:39.917Z,-6.39
2017-01-22T06:21:20.578Z,-6.38
2017-01-22T06:22:01.166Z,-6.39
2017-01-22T06:22:41.766Z,-6.46
2017-01-22T06:23:22.337Z,-6.41
2017-01-22T06:24:03.080Z,-6.39
2017-01-22T06:24:43.679Z,-6.44
2017-01-22T06:25:24.275Z,-6.44
2017-01-22T06:26:04.833Z,-6.44
2017-01-22T06:26:45.501Z,-6.49
2017-01-22T06:27:26.131Z,-6.42
2017-01-22T06:28:06.696Z,-6.42
2017-01-22T06:28:47.353Z,-6.46
2017-01-22T06:29:27.992Z,-6.46
2017-01-22T06:30:08.551Z,-6.44
2017-01-22T06:30:50.259Z,-6.46
2017-01-22T06:31:30.866Z,-6.44
2017-01-22T06:32:11.434Z,-6.47
2017-01-22T06:32:52.080Z,-6.49
2017-01-22T06:33:32.667Z,-6.52
2017-01-22T06:34:13.276Z,-6.53
2017-01-22T06:34:53.856Z,-6.53
2017-01-22T06:35:34.490Z,-6.53
2017-01-22T06:36:15.097Z,-6.56
2017-01-22T06:36:55.679Z,-6.56
2017-01-22T06:37:36.247Z,-6.56
2017-01-22T06:38:16.904Z,-6.47
2017-01-22T06:38:57.588Z,-6.47
2017-01-22T06:39:38.205Z,-6.5
2017-01-22T06:40:18.755Z,-6.52
2017-01-22T06:40:59.386Z,-6.5
2017-01-22T06:41:39.994Z,-6.54
2017-01-22T06:42:20.700Z,-6.58
2017-01-22T06:43:01.258Z,-6.54
2017-01-22T06:43:43.864Z,-6.56
2017-01-22T06:44:24.464Z,-6.52
2017-01-22T06:45:05.049Z,-6.52
2017-01-22T06:45:45.598Z,-6.52
2017-01-22T06:46:26.280Z,-6.53
2017-01-22T06:47:06.922Z,-6.53
2017-01-22T06:47:48.669Z,-6.5
2017-01-22T06:48:29.262Z,-6.58
2017-01-22T06:49:09.907Z,-6.5
2017-01-22T06:49:50.568Z,-6.56
2017-01-22T06:50:31.223Z,-6.61
2017-01-22T06:51:11.875Z,-6.54
2017-01-22T06:51:52.546Z,-6.5
2017-01-22T06:52:33.207Z,-6.6
2017-01-22T06:53:13.834Z,-6.53
2017-01-22T06:53:54.467Z,-6.65
2017-01-22T06:54:35.125Z,-6.53
2017-01-22T06:55:15.762Z,-6.6
2017-01-22T06:55:56.440Z,-6.6
2017-01-22T06:56:37.066Z,-6.66
2017-01-22T06:57:17.634Z,-6.71
2017-01-22T06:57:59.308Z,-6.58
2017-01-22T06:58:39.952Z,-6.68
2017-01-22T06:59:20.501Z,-6.74
2017-01-22T07:00:01.166Z,-6.69
2017-01-22T07:00:41.804Z,-6.63
2017-01-22T07:01:22.354Z,-6.65
2017-01-22T07:02:03.034Z,-6.65
2017-01-22T07:02:43.610Z,-6.72
2017-01-22T07:03:24.216Z,-6.68
2017-01-22T07:04:04.790Z,-6.71
2017-01-22T07:04:45.457Z,-6.71
2017-01-22T07:05:26.036Z,-6.56
2017-01-22T07:06:06.616Z,-6.68
2017-01-22T07:06:47.196Z,-6.69
2017-01-22T07:07:27.827Z,-6.74
2017-01-22T07:08:08.481Z,-6.74
2017-01-22T07:08:49.100Z,-6.69
2017-01-22T07:09:29.732Z,-6.72
2017-01-22T07:10:10.381Z,-6.65
2017-01-22T07:10:51.035Z,-6.63
2017-01-22T07:11:31.640Z,-6.69
2017-01-22T07:12:12.200Z,-6.68
2017-01-22T07:12:52.866Z,-6.6
2017-01-22T07:13:33.554Z,-6.74
2017-01-22T07:14:16.199Z,-6.72
2017-01-22T07:14:56.757Z,-6.74
2017-01-22T07:15:37.419Z,-6.74
2017-01-22T07:16:18.015Z,-6.68
2017-01-22T07:16:58.604Z,-6.74
2017-01-22T07:17:39.179Z,-6.63
2017-01-22T07:18:19.833Z,-6.69
2017-01-22T07:19:00.414Z,-6.71
2017-01-22T07:19:40.989Z,-6.74
2017-01-22T07:20:21.659Z,-6.66
2017-01-22T07:21:02.237Z,-6.65
2017-01-22T07:21:42.872Z,-6.76
2017-01-22T07:22:24.456Z,-6.74
2017-01-22T07:23:06.146Z,-6.74
2017-01-22T07:23:46.778Z,-6.71
2017-01-22T07:24:27.429Z,-6.66
2017-01-22T07:25:08.096Z,-6.61
2017-01-22T07:25:49.761Z,-6.72
2017-01-22T07:26:30.330Z,-6.72
2017-01-22T07:27:11.937Z,-6.74
2017-01-22T07:27:52.539Z,-6.74
2017-01-22T07:28:33.073Z,-6.74
2017-01-22T07:29:13.737Z,-6.68
2017-01-22T07:29:54.343Z,-6.71
2017-01-22T07:30:34.939Z,-6.61
2017-01-22T07:31:15.495Z,-6.66
2017-01-22T07:31:56.160Z,-6.72
2017-01-22T07:32:36.718Z,-6.61
2017-01-22T07:33:17.288Z,-6.69
2017-01-22T07:33:58.923Z,-6.74
2017-01-22T07:34:39.568Z,-6.69
2017-01-22T07:35:20.133Z,-6.69
2017-01-22T07:36:00.777Z,-6.56
2017-01-22T07:36:41.425Z,-6.61
2017-01-22T07:37:22.003Z,-6.69
2017-01-22T07:38:02.632Z,-6.6
2017-01-22T07:38:43.232Z,-6.72
2017-01-22T07:39:23.835Z,-6.72
2017-01-22T07:40:04.387Z,-6.74
2017-01-22T07:40:45.063Z,-6.71
2017-01-22T07:41:25.689Z,-6.63
2017-01-22T07:42:06.263Z,-6.61
2017-01-22T07:42:46.905Z,-6.63
2017-01-22T07:43:27.549Z,-6.61
2017-01-22T07:44:08.097Z,-6.61
2017-01-22T07:44:48.764Z,-6.63
2017-01-22T07:45:30.323Z,-6.65
2017-01-22T07:46:10.881Z,-6.68
2017-01-22T07:46:51.531Z,-6.61
2017-01-22T07:47:32.183Z,-6.6
2017-01-22T07:48:12.858Z,-6.63
2017-01-22T07:48:53.513Z,-6.63
2017-01-22T07:49:34.170Z,-6.6
2017-01-22T07:50:14.798Z,-6.56
2017-01-22T07:50:55.466Z,-6.6
2017-01-22T07:51:36.096Z,-6.61
2017-01-22T07:52:16.653Z,-6.53
2017-01-22T07:52:57.255Z,-6.54
2017-01-22T07:53:37.861Z,-6.6
2017-01-22T07:54:18.505Z,-6.56
2017-01-22T07:54:59.069Z,-6.54
2017-01-22T07:55:39.712Z,-6.6
2017-01-22T07:56:20.356Z,-6.6
2017-01-22T07:57:00.936Z,-6.54
2017-01-22T07:57:41.569Z,-6.52
2017-01-22T07:58:22.178Z,-6.44
2017-01-22T07:59:02.766Z,-6.47
2017-01-22T07:59:43.370Z,-6.52
2017-01-22T08:00:23.974Z,-6.47
2017-01-22T08:01:04.572Z,-6.41
2017-01-22T08:01:45.169Z,-6.41
2017-01-22T08:02:25.826Z,-6.44
2017-01-22T08:03:06.381Z,-6.36
2017-01-22T08:03:47.043Z,-6.39
2017-01-22T08:04:28.710Z,-6.35
2017-01-22T08:05:10.383Z,-6.35
2017-01-22T08:05:50.947Z,-6.41
2017-01-22T08:06:31.509Z,-6.39
2017-01-22T08:07:12.178Z,-6.35
2017-01-22T08:07:52.851Z,-6.41
2017-01-22T08:08:33.439Z,-6.35
2017-01-22T08:09:13.995Z,-6.36
2017-01-22T08:09:54.644Z,-6.36
2017-01-22T08:10:35.195Z,-6.35
2017-01-22T08:11:16.803Z,-6.31
2017-01-22T08:11:58.396Z,-6.35
2017-01-22T08:12:39.012Z,-6.32
2017-01-22T08:13:19.663Z,-6.31
2017-01-22T08:14:00.315Z,-6.36
2017-01-22T08:14:40.960Z,-6.32
2017-01-22T08:15:21.624Z,-6.24
2017-01-22T08:16:02.274Z,-6.31
2017-01-22T08:16:42.930Z,-6.34
2017-01-22T08:17:24.618Z,-6.28
2017-01-22T08:18:05.277Z,-6.2
2017-01-22T08:18:46.974Z,-6.24
2017-01-22T08:19:27.603Z,-6.28
2017-01-22T08:20:08.310Z,-6.21
2017-01-22T08:20:49.008Z,-6.26
2017-01-22T08:21:29.647Z,-6.2
2017-01-22T08:22:10.248Z,-6.2
2017-01-22T08:22:50.940Z,-6.21
2017-01-22T08:23:31.509Z,-6.13
2017-01-22T08:24:12.165Z,-6.11
2017-01-22T08:24:52.754Z,-6.18
2017-01-22T08:25:33.387Z,-6.23
2017-01-22T08:26:13.954Z,-6.2
2017-01-22T08:26:54.571Z,-6.1
2017-01-22T08:27:35.213Z,-6.1
2017-01-22T08:28:15.860Z,-6.15
2017-01-22T08:28:56.539Z,-6.13
2017-01-22T08:29:37.182Z,-6.13
2017-01-22T08:30:17.844Z,-6.07
2017-01-22T08:30:58.481Z,-6.08
2017-01-22T08:31:39.054Z,-6.08
2017-01-22T08:32:19.688Z,-6.13
2017-01-22T08:33:00.273Z,-5.95
2017-01-22T08:33:41.912Z,-5.86
2017-01-22T08:34:23.493Z,-6.03
2017-01-22T08:35:04.144Z,-5.95
2017-01-22T08:35:44.798Z,-5.97
2017-01-22T08:36:25.505Z,-5.9
2017-01-22T08:37:06.140Z,-5.99
2017-01-22T08:37:46.793Z,-5.97
2017-01-22T08:38:27.400Z,-5.92
2017-01-22T08:39:08.061Z,-5.85
2017-01-22T08:39:48.712Z,-5.85
2017-01-22T08:40:29.406Z,-5.84
2017-01-22T08:41:10.089Z,-5.78
2017-01-22T08:41:50.742Z,-5.78
2017-01-22T08:42:31.472Z,-5.72
2017-01-22T08:43:12.134Z,-5.72
2017-01-22T08:43:52.811Z,-5.76
2017-01-22T08:44:33.568Z,-5.63
2017-01-22T08:45:14.218Z,-5.67
2017-01-22T08:45:55.941Z,-5.72